Time;durP1;ratioP1;P1;durP2;ratioP2;P2;SDS_P1;SDS_P2;PMS_P1;PMS_P2;Temp;Humidity;BMP_temperature;BMP_pressure;BME280_temperature;BME280_humidity;BME280_pressure;Samples;Min_cycle;Max_cycle;Signal;HPM_P1;HPM_P2
2022/07/23 00:02:21;;;;;;;6.82;6.22;;;;;;;23.03;50.31;95674.88;5035084;28;20244;-83
2022/07/23 00:04:46;;;;;;;6.40;5.88;;;;;;;23.13;49.15;95667.22;5041956;28;20190;-84
2022/07/23 00:07:11;;;;;;;7.93;6.38;;;;;;;23.05;49.73;95670.97;5048245;28;20181;-84
2022/07/23 00:09:37;;;;;;;7.03;6.35;;;;;;;23.01;50.20;95666.34;5051540;28;20668;-83
2022/07/23 00:12:02;;;;;;;7.45;6.78;;;;;;;23.02;49.82;95665.31;5035063;28;20213;-83
2022/07/23 00:14:27;;;;;;;6.40;5.68;;;;;;;23.05;49.81;95673.63;5018056;28;20174;-83
2022/07/23 00:16:53;;;;;;;6.90;6.40;;;;;;;23.03;50.02;95680.97;5050618;28;20231;-82
2022/07/23 00:19:18;;;;;;;7.10;6.50;;;;;;;22.96;50.36;95674.13;5034323;28;20557;-83
2022/07/23 00:21:43;;;;;;;6.80;6.20;;;;;;;22.85;50.92;95665.91;5034184;28;20208;-82
2022/07/23 00:24:09;;;;;;;7.15;6.45;;;;;;;22.83;50.87;95665.31;5030179;28;20722;-82
2022/07/23 00:26:34;;;;;;;7.32;6.70;;;;;;;22.93;50.32;95659.50;5033276;28;20204;-83
2022/07/23 00:28:59;;;;;;;7.43;6.72;;;;;;;22.91;50.87;95656.28;5033987;28;20189;-83
2022/07/23 00:31:24;;;;;;;6.75;6.20;;;;;;;22.73;52.34;95664.19;5051012;28;20208;-82
2022/07/23 00:33:50;;;;;;;7.40;6.80;;;;;;;22.66;52.61;95661.63;5050580;28;20217;-83
2022/07/23 00:36:15;;;;;;;7.18;6.57;;;;;;;22.63;52.71;95663.91;5034271;28;20178;-83
2022/07/23 00:38:43;;;;;;;7.00;6.32;;;;;;;22.53;53.30;95652.00;5034106;28;20228;-83
2022/07/23 00:41:08;;;;;;;7.35;6.65;;;;;;;22.45;54.01;95651.47;5034496;28;20205;-83
2022/07/23 00:43:34;;;;;;;7.47;6.80;;;;;;;22.35;53.74;95657.25;5051842;28;20193;-85
2022/07/23 00:45:59;;;;;;;6.70;6.20;;;;;;;22.38;54.04;95656.81;5033736;28;20268;-84
2022/07/23 00:48:24;;;;;;;7.85;7.15;;;;;;;22.29;54.38;95653.66;5033645;28;20556;-83
2022/07/23 00:50:50;;;;;;;7.70;7.05;;;;;;;22.25;54.55;95659.56;5051394;28;20194;-84
2022/07/23 00:53:15;;;;;;;7.15;6.53;;;;;;;;;;5050518;28;20193;-84
2022/07/23 00:55:41;;;;;;;8.10;7.28;;;;;;;22.21;54.17;95655.75;5035053;28;20178;-84
2022/07/23 00:58:06;;;;;;;7.20;6.50;;;;;;;22.30;54.02;95646.50;5072537;28;20186;-84
2022/07/23 01:00:31;;;;;;;8.10;7.40;;;;;;;22.30;53.80;95631.44;5056542;28;20182;-85
2022/07/23 01:02:57;;;;;;;8.05;6.93;;;;;;;22.29;53.41;95637.78;5057028;28;20257;-86
2022/07/23 01:05:22;;;;;;;8.13;6.90;;;;;;;22.34;53.21;95629.97;5059166;28;20158;-86
2022/07/23 01:07:49;;;;;;;8.40;7.60;;;;;;;22.32;53.11;95624.09;5057141;28;20241;-84
2022/07/23 01:10:33;;;;;;;8.25;7.35;;;;;;;22.36;53.19;95615.75;5022023;28;20174;-84
2022/07/23 01:13:06;;;;;;;8.13;7.38;;;;;;;22.31;53.26;95633.06;5041652;28;20214;-85
2022/07/23 01:15:35;;;;;;;7.40;6.80;;;;;;;22.29;53.79;95627.19;5050737;28;20166;-85
2022/07/23 01:18:01;;;;;;;8.73;7.93;;;;;;;22.20;54.36;95617.13;5053701;28;20188;-84
2022/07/23 01:20:27;;;;;;;8.10;7.30;;;;;;;22.26;54.08;95611.75;5037989;28;20198;-83
2022/07/23 01:22:53;;;;;;;7.82;7.22;;;;;;;22.26;54.00;95601.19;5053535;28;20196;-83
2022/07/23 01:25:18;;;;;;;8.23;7.03;;;;;;;22.25;54.26;95596.91;5020415;28;20221;-84
2022/07/23 01:27:44;;;;;;;8.65;7.55;;;;;;;22.26;54.23;95595.06;5037037;28;20178;-84
2022/07/23 01:30:09;;;;;;;7.55;6.78;;;;;;;22.26;54.80;95605.63;5036485;28;20656;-83
2022/07/23 01:32:35;;;;;;;7.78;7.00;;;;;;;22.22;55.16;95613.22;5035790;28;20268;-83
2022/07/23 01:35:00;;;;;;;8.00;7.30;;;;;;;22.15;55.12;95624.88;5019567;28;20185;-84
2022/07/23 01:37:25;;;;;;;8.90;8.07;;;;;;;22.13;54.96;95621.66;5020070;28;20216;-83
2022/07/23 01:39:51;;;;;;;8.00;7.40;;;;;;;22.04;55.55;95629.81;5052795;28;20174;-83
2022/07/23 01:42:16;;;;;;;8.27;7.57;;;;;;;21.87;56.23;95633.22;5036965;28;20213;-84
2022/07/23 01:44:41;;;;;;;8.60;7.50;;;;;;;21.86;56.31;95628.97;5054757;28;20209;-84
2022/07/23 01:47:07;;;;;;;7.63;6.93;;;;;;;21.80;56.25;95609.47;5056846;28;20185;-83
2022/07/23 01:49:44;;;;;;;8.18;7.38;;;;;;;21.84;55.77;95596.66;5038636;28;20197;-84
2022/07/23 01:52:10;;;;;;;7.85;7.03;;;;;;;21.75;56.06;95604.06;5055649;28;20201;-83
2022/07/23 01:54:38;;;;;;;8.20;7.25;;;;;;;21.70;56.16;95607.31;5037833;28;20178;-84
2022/07/23 01:57:03;;;;;;;8.48;7.75;;;;;;;21.68;56.05;95617.31;5037958;28;20646;-83
2022/07/23 01:59:29;;;;;;;8.15;7.32;;;;;;;21.64;56.23;95620.59;5037034;28;20189;-83
2022/07/23 02:01:55;;;;;;;7.78;7.07;;;;;;;21.59;56.32;95623.06;5019708;28;20221;-84
2022/07/23 02:04:24;;;;;;;9.77;7.18;;;;;;;21.53;56.77;95622.09;5053551;28;20601;-84
2022/07/23 02:06:49;;;;;;;7.78;6.75;;;;;;;21.52;57.27;95624.94;5037432;28;20186;-85
2022/07/23 02:09:15;;;;;;;7.88;7.07;;;;;;;21.51;57.74;95632.06;5037011;28;20584;-83
2022/07/23 02:11:41;;;;;;;7.68;6.90;;;;;;;21.44;58.38;95640.03;5020790;28;20216;-84
2022/07/23 02:14:06;;;;;;;7.78;7.07;;;;;;;21.50;57.95;95635.75;5036291;28;20231;-84
2022/07/23 02:16:32;;;;;;;7.80;7.10;;;;;;;21.49;57.69;95652.63;5054689;28;20177;-84
2022/07/23 02:18:57;;;;;;;7.68;6.72;;;;;;;21.46;58.13;95658.31;5035888;28;20546;-84
2022/07/23 02:21:22;;;;;;;7.57;6.97;;;;;;;21.39;58.41;95657.56;5035664;28;20185;-84
2022/07/23 02:23:48;;;;;;;8.07;7.13;;;;;;;21.34;58.92;95662.66;5036343;28;20182;-83
2022/07/23 02:26:13;;;;;;;7.85;7.15;;;;;;;21.36;58.45;95663.25;5020154;28;20186;-85
2022/07/23 02:28:38;;;;;;;8.18;7.57;;;;;;;21.31;58.80;95660.44;5053182;28;20186;-83
2022/07/23 02:31:04;;;;;;;8.65;7.63;;;;;;;21.39;57.86;95668.13;5020006;28;20808;-83
2022/07/23 02:33:29;;;;;;;7.63;6.93;;;;;;;21.36;57.21;95665.88;5036515;28;20201;-84
2022/07/23 02:35:55;;;;;;;8.38;7.03;;;;;;;21.34;56.72;95663.47;5035316;28;20184;-84
2022/07/23 02:38:20;;;;;;;6.93;6.32;;;;;;;21.25;56.64;95674.47;5035461;28;20263;-84
2022/07/23 02:40:46;;;;;;;7.20;6.60;;;;;;;21.27;56.89;95677.72;5037179;28;20291;-83
2022/07/23 02:43:11;;;;;;;6.68;6.00;;;;;;;21.30;56.83;95677.31;5051544;28;20202;-83
2022/07/23 02:45:36;;;;;;;8.90;6.80;;;;;;;21.27;56.42;95685.63;5051858;28;20177;-83
2022/07/23 02:48:02;;;;;;;6.90;6.30;;;;;;;21.20;55.84;95693.56;5053005;28;20235;-82
2022/07/23 02:50:30;;;;;;;7.28;6.50;;;;;;;21.26;55.79;95690.09;5037050;28;20178;-83
2022/07/23 02:52:55;;;;;;;7.32;6.10;;;;;;;21.19;55.43;95700.66;5036844;28;20206;-83
2022/07/23 02:55:21;;;;;;;6.80;6.20;;;;;;;21.23;55.08;95705.56;5053871;28;20251;-83
2022/07/23 02:57:46;;;;;;;6.07;5.47;;;;;;;21.32;55.09;95701.69;5067895;28;20178;-84
2022/07/23 03:00:12;;;;;;;6.47;5.88;;;;;;;21.35;55.63;95709.16;5071194;28;20184;-84
2022/07/23 03:02:37;;;;;;;7.07;6.38;;;;;;;21.44;56.02;95706.06;5067593;28;20205;-83
2022/07/23 03:05:03;;;;;;;7.53;6.82;;;;;;;21.38;56.46;95696.38;5045226;28;20181;-83
2022/07/23 03:07:28;;;;;;;7.10;6.40;;;;;;;21.27;56.93;95686.44;5037773;28;20186;-84
2022/07/23 03:09:53;;;;;;;7.80;7.00;;;;;;;21.15;57.68;95699.47;5054111;28;20235;-85
2022/07/23 03:12:19;;;;;;;7.18;6.47;;;;;;;21.17;57.96;95697.44;5037238;28;20215;-84
2022/07/23 03:14:44;;;;;;;7.70;6.25;;;;;;;21.19;57.22;95695.38;5036313;28;20186;-84
2022/07/23 03:17:10;;;;;;;8.30;7.05;;;;;;;21.14;57.06;95697.88;5036412;28;20205;-84
2022/07/23 03:19:36;;;;;;;7.78;6.65;;;;;;;21.18;56.67;95696.41;5036329;28;20479;-84
2022/07/23 03:22:01;;;;;;;6.28;5.75;;;;;;;21.16;56.63;95701.09;5036311;28;20220;-84
2022/07/23 03:27:11;;;;;;;6.88;6.18;;;;;;;21.05;56.82;95690.41;5052716;28;20200;-85
2022/07/23 03:29:36;;;;;;;7.07;6.35;;;;;;;21.03;56.39;95681.88;5052290;28;20170;-84
2022/07/23 03:32:03;;;;;;;6.70;6.10;;;;;;;21.08;56.27;95688.13;5035650;28;20297;-83
2022/07/23 03:34:28;;;;;;;7.05;6.45;;;;;;;21.06;56.35;95692.81;5052869;28;20312;-83
2022/07/23 03:36:53;;;;;;;8.98;6.78;;;;;;;20.99;56.23;95693.84;5031955;28;20648;-84
2022/07/23 03:39:19;;;;;;;6.63;5.60;;;;;;;21.10;56.04;95701.94;5015853;28;20193;-83
2022/07/23 03:41:44;;;;;;;8.73;6.45;;;;;;;21.13;56.12;95701.53;5033473;28;20190;-83
2022/07/23 03:44:09;;;;;;;7.78;6.97;;;;;;;21.20;56.48;95701.47;5052634;28;20538;-83
2022/07/23 03:46:34;;;;;;;8.23;6.78;;;;;;;21.16;56.72;95698.47;5037093;28;20264;-84
2022/07/23 03:49:00;;;;;;;7.47;6.85;;;;;;;21.15;57.63;95702.13;5036731;28;20196;-83
2022/07/23 03:51:25;;;;;;;7.40;6.70;;;;;;;21.12;58.54;95699.91;5035095;28;20202;-83
2022/07/23 03:53:50;;;;;;;8.15;7.40;;;;;;;20.92;59.51;95707.06;5018269;28;20605;-83
2022/07/23 03:56:16;;;;;;;8.23;7.43;;;;;;;20.95;58.85;95711.16;5018633;28;20185;-83
2022/07/23 03:58:41;;;;;;;7.20;6.60;;;;;;;20.97;59.21;95717.03;5050965;28;20190;-83
2022/07/23 04:01:06;;;;;;;7.50;6.80;;;;;;;20.98;59.31;95713.34;5035377;28;20177;-83
2022/07/23 04:03:32;;;;;;;7.20;6.60;;;;;;;20.97;58.87;95720.47;5019235;28;20193;-84
2022/07/23 04:05:57;;;;;;;7.75;6.47;;;;;;;20.86;58.99;95715.84;5034407;28;20552;-85
2022/07/23 04:08:22;;;;;;;6.95;6.32;;;;;;;21.01;58.63;95707.66;5019822;28;20568;-85
2022/07/23 04:10:48;;;;;;;7.28;6.57;;;;;;;21.10;58.55;95712.50;5035314;28;20688;-84
2022/07/23 04:13:13;;;;;;;7.78;6.53;;;;;;;21.14;58.50;95700.50;5035111;28;20208;-84
2022/07/23 04:15:38;;;;;;;8.18;6.90;;;;;;;21.06;59.11;95699.94;5051043;28;20189;-84
2022/07/23 04:18:04;;;;;;;6.82;6.10;;;;;;;21.11;58.66;95714.09;5035178;28;20170;-84
2022/07/23 04:20:29;;;;;;;7.55;6.78;;;;;;;21.01;58.58;95713.75;5035257;28;20181;-85
2022/07/23 04:22:54;;;;;;;6.70;6.18;;;;;;;21.07;57.70;95706.81;5033863;28;20201;-84
2022/07/23 04:25:20;;;;;;;6.80;6.20;;;;;;;21.06;57.95;95713.94;5035075;28;20280;-84
2022/07/23 04:27:45;;;;;;;7.35;6.50;;;;;;;20.97;57.99;95717.03;5035108;28;20230;-85
2022/07/23 04:30:10;;;;;;;5.90;5.38;;;;;;;21.13;57.28;95719.19;5018841;28;20194;-84
2022/07/23 04:32:36;;;;;;;7.70;6.25;;;;;;;21.24;56.53;95715.09;5019656;28;20214;-83
2022/07/23 04:35:02;;;;;;;6.75;6.13;;;;;;;21.14;56.31;95718.19;5029486;28;20243;-87
2022/07/23 04:37:27;;;;;;;6.60;6.00;;;;;;;21.09;56.13;95718.78;5035409;28;20192;-84
2022/07/23 04:39:52;;;;;;;6.43;5.90;;;;;;;21.06;56.66;95721.84;5034502;28;20272;-84
2022/07/23 04:42:18;;;;;;;6.38;5.78;;;;;;;21.12;56.46;95720.22;5052222;28;20192;-84
2022/07/23 04:44:43;;;;;;;6.95;6.38;;;;;;;21.12;56.39;95725.50;5035908;28;20236;-84
2022/07/23 04:47:08;;;;;;;8.13;5.53;;;;;;;21.04;56.44;95728.38;5057016;28;20177;-85
2022/07/23 04:49:34;;;;;;;6.93;6.20;;;;;;;21.05;56.39;95720.25;5038248;28;20609;-83
2022/07/23 04:51:59;;;;;;;6.47;5.70;;;;;;;21.09;55.13;95726.72;5038702;28;20624;-83
2022/07/23 04:54:24;;;;;;;6.65;6.05;;;;;;;21.13;55.45;95733.22;5054923;28;20570;-82
2022/07/23 04:56:49;;;;;;;7.00;6.13;;;;;;;21.14;56.95;95737.47;5055098;28;20183;-83
2022/07/23 04:59:15;;;;;;;6.03;5.43;;;;;;;21.08;57.83;95721.66;5053979;28;20189;-83
2022/07/23 05:01:41;;;;;;;6.13;5.38;;;;;;;21.05;57.45;95722.06;5037789;28;20193;-83
2022/07/23 05:04:06;;;;;;;6.50;5.90;;;;;;;21.07;57.25;95714.75;5021164;28;20245;-83
2022/07/23 05:06:32;;;;;;;6.05;5.45;;;;;;;21.20;57.43;95712.88;5037862;28;20617;-83
2022/07/23 05:08:57;;;;;;;5.95;5.45;;;;;;;21.21;57.70;95724.25;5037432;28;20756;-83
2022/07/23 05:11:22;;;;;;;6.28;5.60;;;;;;;21.22;57.75;95720.59;5021035;28;20248;-83
2022/07/23 05:13:48;;;;;;;6.53;5.80;;;;;;;21.35;57.93;95730.31;5053128;28;20206;-82
2022/07/23 05:16:13;;;;;;;5.88;5.38;;;;;;;21.49;58.44;95726.59;5053915;28;20172;-83
2022/07/23 05:18:38;;;;;;;5.88;5.38;;;;;;;21.57;58.34;95736.91;5037603;28;20178;-83
2022/07/23 05:21:04;;;;;;;6.35;5.70;;;;;;;21.62;58.46;95737.06;5021069;28;20672;-83
2022/07/23 05:23:29;;;;;;;5.68;5.18;;;;;;;21.73;56.14;95739.06;5037881;28;20220;-84
2022/07/23 05:25:54;;;;;;;6.82;6.10;;;;;;;21.79;56.46;95742.69;5036878;28;20560;-82
2022/07/23 05:28:19;;;;;;;7.32;6.00;;;;;;;21.82;57.62;95757.28;5054464;28;20660;-82
2022/07/23 05:30:45;;;;;;;6.32;5.80;;;;;;;21.83;56.95;95756.28;5054886;28;20174;-82
2022/07/23 05:33:10;;;;;;;6.75;6.15;;;;;;;21.75;57.07;95758.16;5054564;28;20213;-82
2022/07/23 05:35:35;;;;;;;6.85;6.25;;;;;;;21.69;57.38;95782.78;5036979;28;20182;-84
2022/07/23 05:38:01;;;;;;;7.30;5.97;;;;;;;21.57;57.38;95778.38;5020742;28;20657;-83
2022/07/23 05:40:26;;;;;;;7.10;6.55;;;;;;;21.70;57.02;95770.38;5053888;28;20208;-82
2022/07/23 05:42:51;;;;;;;7.15;6.55;;;;;;;21.29;57.78;95773.41;5053488;28;20194;-82
2022/07/23 05:45:17;;;;;;;6.60;6.10;;;;;;;21.51;57.93;95776.56;5052746;28;20189;-82
2022/07/23 05:47:48;;;;;;;6.68;5.93;;;;;;;21.55;57.31;95772.47;5033327;28;20218;-83
2022/07/23 05:50:15;;;;;;;7.30;6.07;;;;;;;21.53;57.96;95766.59;5035771;28;20231;-84
2022/07/23 05:52:41;;;;;;;6.75;6.05;;;;;;;21.59;57.58;95763.94;5020188;28;20688;-82
2022/07/23 05:55:08;;;;;;;6.45;5.78;;;;;;;22.11;55.91;95755.94;5034824;28;20654;-82
2022/07/23 05:57:33;;;;;;;6.90;6.30;;;;;;;24.27;50.23;95760.88;5027056;28;20781;-81
2022/07/23 05:59:58;;;;;;;6.10;5.50;;;;;;;25.51;46.20;95742.97;5020962;28;20277;-81
2022/07/23 06:02:24;;;;;;;7.47;6.15;;;;;;;25.17;45.73;95744.66;5017850;28;20191;-82
2022/07/23 06:04:49;;;;;;;7.80;5.47;;;;;;;24.93;46.17;95741.22;5048631;28;20199;-81
2022/07/23 06:07:14;;;;;;;6.28;5.57;;;;;;;25.12;47.98;95742.72;5036544;28;20182;-80
2022/07/23 06:09:40;;;;;;;6.63;5.97;;;;;;;27.06;42.37;95762.16;5036279;28;20181;-81
2022/07/23 06:12:05;;;;;;;6.40;5.78;;;;;;;27.79;39.88;95771.59;5020369;28;20237;-80
2022/07/23 06:14:31;;;;;;;6.15;5.65;;;;;;;26.67;41.20;95777.25;5035348;28;20279;-80
2022/07/23 06:16:56;;;;;;;5.75;5.25;;;;;;;26.13;42.92;95790.97;5027935;28;20190;-80
2022/07/23 06:19:21;;;;;;;6.78;5.60;;;;;;;25.29;45.08;95798.63;5045802;28;20209;-80
2022/07/23 06:21:47;;;;;;;6.53;5.93;;;;;;;24.65;47.07;95815.44;5071367;28;20721;-79
2022/07/23 06:24:12;;;;;;;8.52;6.32;;;;;;;24.19;48.92;95822.25;5072728;28;20217;-81
2022/07/23 06:26:37;;;;;;;6.70;5.95;;;;;;;23.48;51.42;95850.22;5057134;28;20178;-80
2022/07/23 06:29:02;;;;;;;7.13;6.43;;;;;;;22.83;54.24;95861.22;5069858;28;20181;-80
2022/07/23 06:31:28;;;;;;;8.35;6.22;;;;;;;22.36;57.23;95865.25;5054582;28;20518;-80
2022/07/23 06:33:54;;;;;;;8.95;7.05;;;;;;;22.03;61.80;95871.50;5035224;28;20603;-80
2022/07/23 06:36:19;;;;;;;9.15;7.38;;;;;;;21.68;66.15;95857.81;5034965;28;20307;-79
2022/07/23 06:38:44;;;;;;;7.45;6.75;;;;;;;21.42;65.80;95853.41;5051314;28;20205;-79
2022/07/23 06:41:10;;;;;;;9.63;7.00;;;;;;;21.29;67.47;95860.56;5037833;28;20170;-79
2022/07/23 06:43:35;;;;;;;11.10;7.78;;;;;;;21.20;70.27;95866.06;5025418;28;20181;-78
2022/07/23 06:46:00;;;;;;;10.23;8.38;;;;;;;20.93;72.83;95849.41;5034360;28;20533;-80
2022/07/23 06:48:26;;;;;;;9.25;7.97;;;;;;;20.59;73.16;95816.16;5032339;28;20208;-77
2022/07/23 06:50:52;;;;;;;9.77;7.88;;;;;;;20.45;74.53;95818.97;5002010;28;20174;-78
2022/07/23 06:53:17;;;;;;;8.98;8.15;;;;;;;20.21;74.93;95822.97;5041982;28;20221;-75
2022/07/23 06:55:43;;;;;;;9.90;8.40;;;;;;;20.13;76.80;95817.88;5022395;28;20182;-76
2022/07/23 06:58:09;;;;;;;9.63;8.57;;;;;;;20.29;75.03;95813.06;5039562;28;20254;-78
2022/07/23 07:00:35;;;;;;;9.35;8.00;;;;;;;20.50;74.75;95820.00;5029451;28;20241;-79
2022/07/23 07:03:00;;;;;;;9.18;8.13;;;;;;;20.61;74.37;95829.13;5017831;28;20277;-81
2022/07/23 07:05:27;;;;;;;9.85;8.45;;;;;;;20.56;73.92;95831.56;5052701;28;20186;-79
2022/07/23 07:07:53;;;;;;;9.80;8.38;;;;;;;20.70;74.92;95822.63;5061051;28;20187;-81
2022/07/23 07:10:19;;;;;;;8.85;8.00;;;;;;;21.14;73.85;95823.81;5030267;28;20180;-79
2022/07/23 07:12:44;;;;;;;8.90;7.60;;;;;;;21.28;73.70;95816.69;5061174;28;20205;-78
2022/07/23 07:15:10;;;;;;;9.48;8.48;;;;;;;21.77;73.99;95819.53;5038113;28;20731;-78
2022/07/23 07:17:35;;;;;;;8.88;7.97;;;;;;;24.16;63.61;95833.31;5052072;28;20181;-78
2022/07/23 07:20:00;;;;;;;7.95;7.30;;;;;;;23.87;61.97;95825.13;5053519;28;20521;-78
2022/07/23 07:22:26;;;;;;;8.15;7.45;;;;;;;23.62;62.32;95822.59;5051501;28;20197;-79
2022/07/23 07:24:51;;;;;;;7.80;6.90;;;;;;;23.23;65.73;95823.78;5026843;28;20218;-79
2022/07/23 07:27:16;;;;;;;8.05;7.25;;;;;;;22.94;66.62;95833.25;5029658;28;20240;-79
2022/07/23 07:29:44;;;;;;;8.32;7.53;;;;;;;22.08;68.88;95843.63;5037165;28;20182;-79
2022/07/23 07:32:10;;;;;;;7.97;7.18;;;;;;;21.55;71.54;95836.69;5037608;28;20207;-82
2022/07/23 07:34:35;;;;;;;9.65;7.60;;;;;;;21.28;72.18;95837.81;5051627;28;20600;-83
2022/07/23 07:37:00;;;;;;;8.10;7.40;;;;;;;21.43;72.56;95844.47;5051347;28;20174;-83
2022/07/23 07:39:29;;;;;;;8.02;7.32;;;;;;;21.53;72.45;95833.47;5037131;28;20176;-87
2022/07/23 07:41:54;;;;;;;7.93;7.22;;;;;;;21.59;71.76;95830.00;5035908;28;20515;-80
2022/07/23 07:44:19;;;;;;;7.82;7.13;;;;;;;21.43;72.27;95833.91;5025143;28;20182;-77
2022/07/23 07:46:45;;;;;;;8.13;7.32;;;;;;;21.65;72.22;95826.53;5030362;28;20228;-76
2022/07/23 07:49:10;;;;;;;8.35;7.50;;;;;;;22.45;70.36;95836.69;5017780;28;20636;-81
2022/07/23 07:51:35;;;;;;;8.38;7.50;;;;;;;22.73;69.36;95838.91;5018862;28;20201;-81
2022/07/23 07:54:01;;;;;;;8.10;7.35;;;;;;;23.39;66.10;95841.75;5035901;28;20239;-81
2022/07/23 07:56:26;;;;;;;7.53;6.82;;;;;;;23.88;65.15;95847.97;5036363;28;20649;-80
2022/07/23 07:58:51;;;;;;;8.07;7.25;;;;;;;23.11;66.80;95852.84;5036779;28;20178;-79
2022/07/23 08:01:19;;;;;;;8.50;7.38;;;;;;;23.11;66.85;95849.41;5035091;28;20177;-81
2022/07/23 08:03:44;;;;;;;9.02;7.40;;;;;;;22.58;66.69;95837.38;5034828;28;20185;-79
2022/07/23 08:06:09;;;;;;;7.53;6.93;;;;;;;22.83;66.74;95844.53;5035919;28;20181;-80
2022/07/23 08:08:34;;;;;;;8.75;7.20;;;;;;;22.24;70.19;95854.50;5033686;28;20181;-81
2022/07/23 08:11:00;;;;;;;8.57;7.75;;;;;;;22.22;72.06;95863.69;5009807;28;20208;-79
2022/07/23 08:13:25;;;;;;;8.77;7.97;;;;;;;22.51;71.83;95864.91;5019863;28;20205;-79
2022/07/23 08:15:52;;;;;;;8.93;8.13;;;;;;;22.55;69.51;95864.28;5034572;28;20193;-81
2022/07/23 08:18:18;;;;;;;8.80;8.07;;;;;;;22.62;69.13;95864.25;5050147;28;20177;-80
2022/07/23 08:20:43;;;;;;;22.52;9.60;;;;;;;23.77;67.28;95867.28;5035267;28;20603;-84
2022/07/23 08:23:09;;;;;;;8.30;7.60;;;;;;;23.79;66.53;95861.75;5043834;28;20208;-83
2022/07/23 08:25:36;;;;;;;7.97;7.18;;;;;;;24.68;64.32;95857.50;4998273;28;20194;-86
2022/07/23 08:28:03;;;;;;;15.23;7.88;;;;;;;25.43;60.75;95863.78;4999650;28;20265;-84
2022/07/23 08:30:30;;;;;;;13.10;7.30;;;;;;;25.05;58.53;95872.22;4999642;28;20246;-82
2022/07/23 08:33:00;;;;;;;6.97;6.30;;;;;;;25.09;56.68;95868.09;5016356;28;20779;-80
2022/07/23 08:35:32;;;;;;;7.03;6.35;;;;;;;25.43;54.80;95865.63;5032208;28;20178;-81
2022/07/23 08:37:59;;;;;;;6.22;5.63;;;;;;;26.10;53.13;95873.97;5051688;28;20186;-81
2022/07/23 08:40:29;;;;;;;7.43;5.78;;;;;;;25.86;51.64;95883.06;5010067;28;20178;-81
2022/07/23 08:42:55;;;;;;;5.97;5.43;;;;;;;26.30;48.20;95883.38;5017865;28;20197;-79
2022/07/23 08:45:22;;;;;;;5.85;5.35;;;;;;;26.66;48.20;95883.00;5020229;28;20213;-81
2022/07/23 08:47:56;;;;;;;5.90;5.35;;;;;;;26.78;44.71;95874.94;5015015;28;20273;-81
2022/07/23 08:50:23;;;;;;;5.70;5.15;;;;;;;26.08;45.82;95877.91;5031417;28;20189;-80
2022/07/23 08:52:50;;;;;;;6.85;6.25;;;;;;;26.34;46.61;95881.88;5017230;28;20811;-83
2022/07/23 08:55:17;;;;;;;6.80;6.20;;;;;;;26.35;47.33;95870.16;4997442;28;20175;-80
2022/07/23 08:57:43;;;;;;;6.53;5.75;;;;;;;25.88;45.88;95867.66;5017331;28;20268;-80
2022/07/23 09:00:09;;;;;;;6.38;5.78;;;;;;;26.26;45.91;95875.06;5033161;28;20245;-82
2022/07/23 09:02:42;;;;;;;6.07;5.57;;;;;;;26.14;45.85;95875.09;5035061;28;20212;-81
2022/07/23 09:05:11;;;;;;;5.68;5.18;;;;;;;25.77;45.15;95879.13;5033183;28;20701;-81
2022/07/23 09:07:37;;;;;;;6.75;6.03;;;;;;;25.57;48.11;95882.16;5033419;28;20174;-80
2022/07/23 09:10:10;;;;;;;6.63;5.85;;;;;;;25.46;51.12;95883.00;5017386;28;20325;-79
2022/07/23 09:12:37;;;;;;;6.80;6.10;;;;;;;25.13;50.82;95887.84;5051224;28;20228;-80
2022/07/23 09:15:07;;;;;;;7.55;6.63;;;;;;;25.45;51.38;95879.53;5017647;28;20185;-81
2022/07/23 09:17:41;;;;;;;6.88;6.25;;;;;;;25.28;52.69;95884.72;5051207;28;20176;-81
2022/07/23 09:20:16;;;;;;;6.60;6.00;;;;;;;25.30;50.30;95881.84;5034139;28;20263;-82
2022/07/23 09:22:45;;;;;;;7.10;6.50;;;;;;;25.68;49.60;95878.66;5031524;28;20248;-82
2022/07/23 09:25:16;;;;;;;7.05;6.40;;;;;;;25.70;48.60;95876.56;5017763;28;20185;-80
2022/07/23 09:27:57;;;;;;;7.15;6.45;;;;;;;25.80;48.00;95886.66;5035374;28;20174;-81
2022/07/23 09:30:27;;;;;;;8.75;6.50;;;;;;;25.75;47.73;95886.56;5019246;28;20664;-80
2022/07/23 09:33:09;;;;;;;6.72;6.13;;;;;;;26.42;44.60;95887.66;5021600;28;20214;-80
2022/07/23 09:35:55;;;;;;;6.18;5.68;;;;;;;26.03;42.63;95885.78;5037074;28;20182;-81
2022/07/23 09:38:23;;;;;;;6.28;5.63;;;;;;;26.58;41.39;95886.03;5038432;28;20178;-81
2022/07/23 09:41:07;;;;;;;8.05;6.82;;;;;;;26.87;43.78;95878.03;5037453;28;20180;-81
2022/07/23 09:43:32;;;;;;;8.60;7.70;;;;;;;26.88;45.29;95880.44;5037177;28;20201;-81
2022/07/23 09:46:18;;;;;;;9.75;7.80;;;;;;;26.97;45.13;95886.97;5053390;28;20178;-81
2022/07/23 09:48:43;;;;;;;6.88;6.28;;;;;;;26.42;41.39;95884.19;5054234;28;20231;-81
2022/07/23 09:51:12;;;;;;;6.68;6.07;;;;;;;26.53;42.45;95880.63;5036785;28;20174;-80
2022/07/23 09:53:37;;;;;;;6.28;5.72;;;;;;;26.63;42.06;95880.81;5021311;28;20190;-81
2022/07/23 09:56:03;;;;;;;6.60;6.00;;;;;;;26.63;42.98;95885.34;5053067;28;20600;-80
2022/07/23 09:58:30;;;;;;;7.03;6.43;;;;;;;27.04;43.12;95887.66;5020547;28;20200;-81
2022/07/23 10:00:57;;;;;;;6.97;6.28;;;;;;;26.60;43.82;95891.16;5036739;28;20186;-80
2022/07/23 10:03:23;;;;;;;7.20;6.50;;;;;;;26.83;43.65;95885.66;5037246;28;20240;-80
2022/07/23 10:05:49;;;;;;;6.20;5.70;;;;;;;26.88;40.61;95888.44;5035522;28;20189;-80
2022/07/23 10:08:18;;;;;;;8.98;6.40;;;;;;;26.89;41.92;95891.91;5020608;28;20564;-81
2022/07/23 10:10:45;;;;;;;6.63;6.03;;;;;;;26.84;42.80;95895.28;5012186;28;20177;-80
2022/07/23 10:15:55;;;;;;;7.45;5.70;;;;;;;26.84;42.29;95887.28;5038634;28;20192;-80
2022/07/23 10:18:20;;;;;;;5.70;5.20;;;;;;;26.99;40.68;95890.19;5037054;28;20182;-82
2022/07/23 10:20:47;;;;;;;6.15;5.57;;;;;;;27.05;41.33;95888.47;5054777;28;20173;-83
2022/07/23 10:23:19;;;;;;;5.95;5.45;;;;;;;27.01;40.13;95888.09;5034958;28;20212;-81
2022/07/23 10:26:03;;;;;;;7.07;6.47;;;;;;;27.08;41.17;95887.97;5027624;28;20664;-81
2022/07/23 10:28:55;;;;;;;6.30;5.38;;;;;;;26.62;39.18;95892.53;5036642;28;20265;-79
2022/07/23 10:31:38;;;;;;;7.85;6.32;;;;;;;26.76;40.21;95891.16;5020653;28;20293;-81
2022/07/23 10:34:31;;;;;;;6.72;6.10;;;;;;;27.06;39.51;95890.06;5034575;28;20189;-81
2022/07/23 10:37:01;;;;;;;5.57;5.07;;;;;;;27.26;39.47;95890.38;5038799;28;20184;-82
2022/07/23 10:39:28;;;;;;;7.13;6.18;;;;;;;27.40;37.99;95890.06;5020285;28;20184;-82
2022/07/23 10:42:10;;;;;;;6.45;5.85;;;;;;;27.30;39.31;95893.38;5020511;28;20193;-82
2022/07/23 10:44:54;;;;;;;6.18;5.53;;;;;;;27.59;39.86;95891.38;5036544;28;20181;-83
2022/07/23 10:49:53;;;;;;;6.75;6.00;;;;;;;27.48;40.31;95897.63;5023194;28;20248;-83
2022/07/23 10:52:26;;;;;;;6.45;5.95;;;;;;;26.92;41.73;95888.75;5017831;28;20625;-82
2022/07/23 10:54:57;;;;;;;6.93;6.20;;;;;;;26.79;43.08;95882.69;5018106;28;20615;-82
2022/07/23 10:57:24;;;;;;;6.97;6.38;;;;;;;27.07;41.38;95884.50;5037417;28;20177;-83
2022/07/23 11:00:09;;;;;;;7.50;6.78;;;;;;;27.40;42.35;95895.38;5021265;28;20177;-83
2022/07/23 11:02:35;;;;;;;7.47;6.75;;;;;;;27.65;41.67;95888.53;5056303;28;20537;-81
2022/07/23 11:05:03;;;;;;;8.82;6.95;;;;;;;27.54;41.78;95883.31;5036525;28;20201;-81
2022/07/23 11:07:28;;;;;;;7.32;6.35;;;;;;;27.67;39.65;95887.53;5055491;28;20815;-81
2022/07/23 11:09:54;;;;;;;6.65;6.15;;;;;;;28.05;40.88;95884.78;5037056;28;20192;-80
2022/07/23 11:12:19;;;;;;;7.32;6.45;;;;;;;28.02;39.48;95889.84;5019910;28;20217;-79
2022/07/23 11:15:03;;;;;;;6.80;6.30;;;;;;;27.94;38.18;95894.53;5035989;28;20205;-81
2022/07/23 11:17:29;;;;;;;6.35;5.85;;;;;;;27.90;37.23;95890.75;5054207;28;20409;-82
2022/07/23 11:20:15;;;;;;;6.43;5.93;;;;;;;27.83;37.04;95895.47;5036394;28;20193;-79
2022/07/23 11:22:43;;;;;;;6.55;5.95;;;;;;;27.63;37.22;95884.50;5054006;28;20684;-82
2022/07/23 11:25:13;;;;;;;6.95;6.35;;;;;;;28.02;38.05;95890.63;5054217;28;20228;-81
2022/07/23 11:27:43;;;;;;;6.68;6.18;;;;;;;27.58;37.72;95884.44;5020185;28;20193;-80
2022/07/23 11:30:11;;;;;;;6.95;6.25;;;;;;;27.57;39.13;95885.50;5020185;28;20186;-82
2022/07/23 11:32:40;;;;;;;7.00;6.30;;;;;;;27.38;39.21;95885.75;5019627;28;20792;-81
2022/07/23 11:35:26;;;;;;;6.63;6.03;;;;;;;27.26;39.25;95879.72;5016786;28;20171;-80
2022/07/23 11:38:03;;;;;;;6.88;6.18;;;;;;;27.68;38.48;95886.47;5036196;28;20273;-81
2022/07/23 11:40:28;;;;;;;7.30;6.55;;;;;;;27.31;40.48;95887.00;5036944;28;20256;-80
2022/07/23 11:43:00;;;;;;;7.15;6.45;;;;;;;27.72;41.50;95880.38;5035397;28;20274;-81